TimeEDT,TemperatureF,Dew PointF,Humidity,Sea Level PressureIn,VisibilityMPH,Wind Direction,Wind SpeedMPH,Gust SpeedMPH,PrecipitationIn,Events,Conditions,WindDirDegrees,DateUTC
12:16 AM,57.2,53.2,87,29.95,10.0,SSW,10.4,-,N/A,,Clear,210,2013-09-15 04:16:00
12:35 AM,57.6,53.2,85,29.95,10.0,SSW,9.2,-,N/A,,Clear,210,2013-09-15 04:35:00
12:55 AM,58.1,53.6,85,29.95,10.0,SW,11.5,-,N/A,,Clear,220,2013-09-15 04:55:00
1:16 AM,57.7,53.6,86,29.94,10.0,SW,9.2,-,N/A,,Clear,220,2013-09-15 05:16:00
1:35 AM,57.6,53.6,87,29.94,10.0,SW,9.2,-,N/A,,Clear,220,2013-09-15 05:35:00
1:55 AM,57.4,53.6,87,29.94,10.0,SW,8.1,-,N/A,,Clear,220,2013-09-15 05:55:00
2:15 AM,57.2,53.6,88,29.95,10.0,SW,8.1,-,N/A,,Mostly Cloudy,220,2013-09-15 06:15:00
2:35 AM,56.5,53.6,90,29.94,10.0,SSW,5.8,-,N/A,,Mostly Cloudy,210,2013-09-15 06:35:00
2:55 AM,57.0,53.2,87,29.95,10.0,SW,6.9,-,N/A,,Scattered Clouds,230,2013-09-15 06:55:00
3:15 AM,57.4,52.7,84,29.94,10.0,SW,9.2,-,N/A,,Mostly Cloudy,230,2013-09-15 07:15:00
3:35 AM,57.6,52.2,82,29.94,10.0,SW,8.1,-,N/A,,Overcast,220,2013-09-15 07:35:00
3:55 AM,58.3,51.3,77,29.93,10.0,West,5.8,-,N/A,,Overcast,270,2013-09-15 07:55:00
4:15 AM,57.6,51.6,81,29.95,10.0,SSW,8.1,-,N/A,,Mostly Cloudy,200,2013-09-15 08:15:00
4:35 AM,57.7,51.6,80,29.95,10.0,WSW,9.2,-,N/A,,Overcast,240,2013-09-15 08:35:00
4:56 AM,57.6,51.8,81,29.95,10.0,WSW,4.6,-,N/A,,Overcast,250,2013-09-15 08:56:00
5:15 AM,56.3,52.2,86,29.95,10.0,Calm,Calm,-,N/A,,Overcast,0,2013-09-15 09:15:00
5:35 AM,56.5,51.8,84,29.96,10.0,WSW,5.8,-,N/A,,Overcast,250,2013-09-15 09:35:00
5:56 AM,56.3,52.0,85,29.97,10.0,SW,6.9,-,N/A,Rain,Light Rain,230,2013-09-15 09:56:00
6:15 AM,55.9,52.2,87,29.97,10.0,West,5.8,-,N/A,Rain,Rain,270,2013-09-15 10:15:00
6:35 AM,55.0,52.0,89,29.96,10.0,SW,5.8,-,N/A,Rain,Light Rain,230,2013-09-15 10:35:00
6:55 AM,54.5,52.2,92,29.97,10.0,SW,5.8,-,N/A,,Overcast,220,2013-09-15 10:55:00
7:15 AM,54.7,52.2,91,29.97,10.0,WSW,5.8,-,N/A,,Overcast,240,2013-09-15 11:15:00
7:35 AM,54.5,52.2,92,29.98,10.0,SW,4.6,-,N/A,,Overcast,230,2013-09-15 11:35:00
7:55 AM,53.8,52.2,94,29.98,10.0,SSW,4.6,-,N/A,Rain,Light Rain,200,2013-09-15 11:55:00
8:15 AM,53.8,52.3,95,29.98,10.0,Calm,Calm,-,N/A,Rain,Light Rain,0,2013-09-15 12:15:00
8:35 AM,54.0,52.7,95,29.98,10.0,Calm,Calm,-,N/A,Rain,Rain,0,2013-09-15 12:35:00
8:55 AM,54.3,52.9,95,29.98,10.0,Calm,Calm,-,N/A,Rain,Light Rain,0,2013-09-15 12:55:00
9:15 AM,54.5,53.1,95,29.98,10.0,SW,3.5,-,0.01,Rain,Light Rain,230,2013-09-15 13:15:00
9:36 AM,54.5,53.6,97,29.99,10.0,SW,4.6,-,0.01,Rain,Light Rain,220,2013-09-15 13:36:00
9:55 AM,55.2,54.0,96,30.00,10.0,WSW,5.8,-,0.02,Rain,Light Rain,240,2013-09-15 13:55:00
10:15 AM,55.9,54.5,95,30.00,10.0,SW,3.5,-,N/A,Rain,Light Rain,230,2013-09-15 14:15:00
10:36 AM,56.8,55.0,94,30.00,10.0,WSW,4.6,-,0.01,Rain,Light Rain,240,2013-09-15 14:36:00
10:55 AM,57.2,55.0,92,29.99,10.0,WSW,5.8,-,0.01,Rain,Light Rain,240,2013-09-15 14:55:00
11:15 AM,57.2,54.9,92,30.00,10.0,SW,5.8,-,N/A,Rain,Light Rain,230,2013-09-15 15:15:00
11:35 AM,56.5,53.6,90,30.00,10.0,WSW,6.9,-,0.01,Rain,Light Rain,250,2013-09-15 15:35:00
11:55 AM,56.5,54.3,92,30.00,10.0,SW,5.8,-,0.02,Rain,Light Rain,220,2013-09-15 15:55:00
12:15 PM,56.8,54.3,91,30.00,10.0,SW,8.1,-,N/A,Rain,Light Rain,230,2013-09-15 16:15:00
12:35 PM,56.5,54.5,93,30.00,10.0,WSW,6.9,-,N/A,Rain,Rain,240,2013-09-15 16:35:00
12:55 PM,56.3,54.5,94,30.00,10.0,WSW,6.9,-,N/A,,Overcast,250,2013-09-15 16:55:00
1:15 PM,56.5,54.0,91,30.01,10.0,WSW,6.9,-,N/A,,Overcast,240,2013-09-15 17:15:00
1:35 PM,57.2,54.7,91,30.00,10.0,WSW,6.9,-,N/A,,Overcast,240,2013-09-15 17:35:00
1:55 PM,57.9,54.7,89,30.01,10.0,WSW,6.9,-,N/A,,Overcast,240,2013-09-15 17:55:00
2:16 PM,57.4,54.3,90,30.01,4.0,West,8.1,-,N/A,Rain,Light Rain,270,2013-09-15 18:16:00
2:35 PM,54.9,53.6,96,30.02,3.0,NW,8.1,-,0.02,Rain,Light Rain,320,2013-09-15 18:35:00
2:55 PM,53.1,52.0,96,30.03,4.0,NNW,8.1,-,0.02,,Drizzle,330,2013-09-15 18:55:00
3:15 PM,52.2,51.3,97,30.04,7.0,NW,9.2,-,N/A,,Overcast,320,2013-09-15 19:15:00
3:35 PM,52.0,50.7,95,30.04,10.0,NNW,10.4,-,N/A,,Overcast,330,2013-09-15 19:35:00
3:55 PM,52.0,50.0,93,30.05,10.0,NNW,8.1,17.3,N/A,,Overcast,340,2013-09-15 19:55:00
4:15 PM,51.8,49.5,92,30.05,10.0,NW,9.2,-,N/A,,Overcast,320,2013-09-15 20:15:00
4:35 PM,50.9,48.2,90,30.06,10.0,NNW,13.8,21.9,N/A,,Overcast,330,2013-09-15 20:35:00
4:56 PM,50.5,47.7,90,30.07,10.0,NNW,5.8,18.4,N/A,,Overcast,330,2013-09-15 20:56:00
5:15 PM,50.4,46.8,87,30.08,10.0,NNW,13.8,20.7,N/A,,Overcast,340,2013-09-15 21:15:00
5:35 PM,50.0,46.0,86,30.09,10.0,NNW,11.5,20.7,N/A,,Overcast,340,2013-09-15 21:35:00
5:56 PM,50.0,45.5,85,30.10,10.0,North,9.2,18.4,N/A,,Overcast,350,2013-09-15 21:56:00
6:15 PM,49.3,45.9,88,30.11,10.0,NNW,11.5,19.6,N/A,,Overcast,340,2013-09-15 22:15:00
6:35 PM,49.1,45.3,87,30.11,10.0,NNW,12.7,21.9,N/A,,Overcast,340,2013-09-15 22:35:00
6:55 PM,48.6,45.1,88,30.13,10.0,NNW,11.5,17.3,N/A,,Overcast,340,2013-09-15 22:55:00
7:15 PM,48.2,44.6,87,30.14,10.0,NNW,10.4,17.3,N/A,,Overcast,330,2013-09-15 23:15:00
7:35 PM,47.7,43.9,87,30.14,10.0,NNW,8.1,-,N/A,,Overcast,330,2013-09-15 23:35:00
7:55 PM,47.5,43.5,86,30.15,10.0,NNW,6.9,-,N/A,,Overcast,340,2013-09-15 23:55:00
8:15 PM,47.3,42.8,84,30.16,10.0,NNW,8.1,16.1,N/A,,Overcast,330,2013-09-16 00:15:00
8:36 PM,47.1,41.9,82,30.17,10.0,NNW,10.4,-,N/A,,Overcast,330,2013-09-16 00:36:00
8:55 PM,46.8,41.2,81,30.18,10.0,North,8.1,-,N/A,,Overcast,350,2013-09-16 00:55:00
9:15 PM,46.4,41.0,81,30.19,10.0,NNW,6.9,-,N/A,,Overcast,340,2013-09-16 01:15:00
9:36 PM,46.0,41.0,83,30.19,10.0,North,5.8,-,N/A,,Overcast,350,2013-09-16 01:36:00
9:55 PM,45.1,40.5,84,30.20,10.0,North,4.6,-,N/A,,Overcast,350,2013-09-16 01:55:00
10:15 PM,45.0,40.1,83,30.20,10.0,North,5.8,-,N/A,,Overcast,360,2013-09-16 02:15:00
10:35 PM,45.5,39.4,79,30.22,10.0,North,6.9,-,N/A,,Overcast,360,2013-09-16 02:35:00
10:55 PM,44.6,38.5,79,30.22,10.0,North,10.4,17.3,N/A,,Mostly Cloudy,10,2013-09-16 02:55:00
11:15 PM,43.9,37.8,79,30.23,10.0,North,8.1,17.3,N/A,,Scattered Clouds,10,2013-09-16 03:15:00
11:35 PM,42.8,37.8,82,30.24,10.0,NNE,5.8,-,N/A,,Scattered Clouds,20,2013-09-16 03:35:00
11:55 PM,42.1,38.1,86,30.24,10.0,NNE,8.1,-,N/A,,Scattered Clouds,30,2013-09-16 03:55:00